Accueil
METAR-TAF:

METAR-TAF

Aéroports :

Aéroport Rouen Vallée de Seine

Rouen, France

latitude: 49-23N, longitude: 001-11E, altitude: 157 m

Observation

Le bulletin a été fait il y a 17 minutes, à 06:00 UTC
Vent 7 kt de sud-est
Température 7°C
Humidité 93%
Pression 1015 hPa
Visibilité: 9000 m

METAR: LFOP 280600Z AUTO 14007KT 9000 NSC 07/06 Q1015 TEMPO 2000 BR BKN002

Heure: 08:17 (06:17 UTC)

Prévision

Le bulletin a été fait il y a 1 heure et 17 minutes, à 05:00 UTC
Prévision valable du 28 à 06 UTC au 29 à 06 UTC
Vent 7 kt de sud/sud-est
Visibilité 10 km ou plus
pas de nuages en-dessous de 1500 mètres et pas de cumulonimbus.
Probabilité 40% :
Temporairement
du 28 à 06 UTC au 28 à 09 UTC
Visibilité: 2000 m
Nuages fragmentés à une hauteur de 200 ft
brume

TAF: LFOP 280500Z 2806/2906 16007KT CAVOK PROB40 TEMPO 2806/2809 2000 BR BKN002

Observations et prévisions météorologiques de plus de 4000 aéroports (messages METAR et TAF).

Les stations disponibles sont représentées par des disques jaunes et rouges sur la carte.

Passer la souris dessus pour voir le nom de la station.

Cliquer dessus pour voir les observations et prévisions météorologiques.

Pour changer de carte: cliquez sur les boutons verts avec une croix noire pour zoomer, sur le bouton vert avec un tiret pour effectuer un zoom arrière, ou sur les flèches vertes pour les cartes adjacentes.


METAR-TAF: